createdAt,value
2022-12-04T00:00:22.708Z,85.17
2022-12-04T00:04:15.353Z,85.86
2022-12-04T00:08:08.127Z,85.48
2022-12-04T00:12:00.620Z,85.89
2022-12-04T00:15:54.378Z,86.07
2022-12-04T00:19:47.241Z,86.18
2022-12-04T00:23:40.665Z,86.36
2022-12-04T00:27:33.393Z,86.68
2022-12-04T00:31:27.978Z,86.43
2022-12-04T00:35:20.583Z,86.30
2022-12-04T00:39:12.990Z,86.41
2022-12-04T00:43:05.933Z,86.23
2022-12-04T00:46:58.340Z,86.59
2022-12-04T00:50:51.284Z,86.67
2022-12-04T00:54:43.981Z,86.10
2022-12-04T00:58:36.921Z,86.07
2022-12-04T01:02:30.850Z,86.18
2022-12-04T01:06:29.334Z,86.43
2022-12-04T01:10:22.125Z,86.90
2022-12-04T01:14:14.719Z,86.81
2022-12-04T01:18:07.324Z,87.04
2022-12-04T01:21:59.960Z,87.23
2022-12-04T01:25:53.925Z,86.59
2022-12-04T01:29:46.592Z,86.77
2022-12-04T01:33:39.726Z,86.90
2022-12-04T01:37:32.533Z,87.30
2022-12-04T01:41:29.171Z,87.37
2022-12-04T01:45:27.980Z,87.37
2022-12-04T01:49:34.413Z,87.11
2022-12-04T01:53:27.635Z,87.48
2022-12-04T01:57:22.780Z,87.35
2022-12-04T02:01:15.427Z,87.54
2022-12-04T02:05:11.270Z,87.06
2022-12-04T02:09:04.253Z,87.58
2022-12-04T02:13:22.201Z,87.83
2022-12-04T02:17:48.235Z,88.07
2022-12-04T02:21:44.100Z,87.53
2022-12-04T02:26:01.748Z,87.87
2022-12-04T02:30:04.375Z,87.55
2022-12-04T02:34:07.513Z,87.58
2022-12-04T02:38:14.224Z,88.11
2022-12-04T02:42:32.576Z,88.50
2022-12-04T02:46:32.199Z,88.46
2022-12-04T02:50:25.725Z,88.35
2022-12-04T02:54:25.766Z,88.22
2022-12-04T02:58:27.761Z,87.84
2022-12-04T03:02:53.587Z,87.42
2022-12-04T03:06:51.263Z,88.07
2022-12-04T03:10:48.619Z,87.55
2022-12-04T03:14:48.253Z,87.54
2022-12-04T03:19:10.220Z,87.15
2022-12-04T03:23:11.132Z,87.41
2022-12-04T03:27:19.604Z,87.14
2022-12-04T03:31:15.040Z,88.02
2022-12-04T03:35:21.960Z,87.79
2022-12-04T03:39:19.472Z,87.84
2022-12-04T03:43:18.963Z,87.11
2022-12-04T03:47:23.349Z,87.11
2022-12-04T03:51:20.872Z,87.37
2022-12-04T03:55:41.393Z,87.99
2022-12-04T03:59:54.051Z,87.25
2022-12-04T04:03:52.015Z,87.26
2022-12-04T04:07:50.207Z,87.30
2022-12-04T04:12:15.607Z,88.00
2022-12-04T04:16:30.591Z,87.60
2022-12-04T04:21:03.623Z,88.16
2022-12-04T04:25:02.778Z,88.02
2022-12-04T04:28:55.474Z,88.20
2022-12-04T04:33:03.979Z,88.12
2022-12-04T04:37:15.024Z,88.02
2022-12-04T04:41:07.505Z,88.25
2022-12-04T04:45:09.170Z,87.76
2022-12-04T04:49:04.274Z,87.18
2022-12-04T04:53:02.016Z,87.39
2022-12-04T04:56:54.672Z,87.43
2022-12-04T05:01:03.647Z,87.45
2022-12-04T05:04:56.449Z,87.78
2022-12-04T05:08:49.488Z,86.04
2022-12-04T05:12:42.063Z,85.23
2022-12-04T05:16:34.930Z,84.12
2022-12-04T05:20:27.630Z,83.64
2022-12-04T05:24:20.406Z,83.02
2022-12-04T05:28:12.767Z,83.10
2022-12-04T05:32:05.661Z,83.18
2022-12-04T05:36:07.352Z,82.85
2022-12-04T05:40:00.010Z,82.31
2022-12-04T05:43:52.733Z,82.02
2022-12-04T05:47:45.303Z,82.07
2022-12-04T05:51:37.830Z,82.75
2022-12-04T05:55:30.373Z,82.03
2022-12-04T05:59:22.690Z,82.36
2022-12-04T06:03:15.370Z,82.55
2022-12-04T06:07:07.912Z,82.42
2022-12-04T06:11:00.396Z,82.18
2022-12-04T06:14:53.167Z,82.92
2022-12-04T06:18:49.620Z,82.50
2022-12-04T06:22:42.547Z,83.38
2022-12-04T06:26:35.088Z,83.34
2022-12-04T06:30:28.180Z,83.93
2022-12-04T06:34:20.919Z,83.88
2022-12-04T06:38:13.549Z,83.55
2022-12-04T06:42:06.393Z,84.16
2022-12-04T06:46:14.205Z,85.05
2022-12-04T06:50:07.641Z,85.62
2022-12-04T06:54:01.058Z,85.23
2022-12-04T06:57:53.513Z,85.38
2022-12-04T07:01:46.055Z,85.87
2022-12-04T07:05:38.640Z,85.29
2022-12-04T07:09:31.288Z,85.43
2022-12-04T07:13:23.993Z,85.12
2022-12-04T07:17:16.694Z,85.07
2022-12-04T07:21:13.798Z,86.08
2022-12-04T07:25:06.944Z,86.04
2022-12-04T07:29:00.134Z,86.46
2022-12-04T07:32:52.604Z,86.66
2022-12-04T07:36:45.228Z,86.98
2022-12-04T07:40:38.351Z,86.63
2022-12-04T07:44:32.292Z,86.84
2022-12-04T07:48:30.218Z,86.72
2022-12-04T07:52:25.536Z,86.95
2022-12-04T07:56:18.645Z,86.65
2022-12-04T08:00:13.128Z,86.70
2022-12-04T08:04:06.056Z,86.72
2022-12-04T08:07:58.471Z,86.87
2022-12-04T08:11:51.403Z,86.67
2022-12-04T08:15:43.939Z,86.45
2022-12-04T08:19:36.535Z,86.65
2022-12-04T08:23:29.283Z,85.84
2022-12-04T08:27:21.794Z,85.60
2022-12-04T08:31:17.164Z,85.67
2022-12-04T08:35:09.945Z,85.86
2022-12-04T08:39:02.582Z,85.88
2022-12-04T08:42:55.126Z,85.78
2022-12-04T08:46:47.766Z,85.65
2022-12-04T08:50:45.389Z,86.11
2022-12-04T08:54:37.832Z,86.63
2022-12-04T08:58:31.105Z,85.82
2022-12-04T09:02:23.822Z,85.93
2022-12-04T09:06:16.844Z,85.90
2022-12-04T09:10:10.308Z,86.06
2022-12-04T09:14:04.023Z,85.98
2022-12-04T09:18:01.770Z,85.82
2022-12-04T09:21:55.481Z,85.62
2022-12-04T09:25:48.953Z,85.29
2022-12-04T09:29:42.105Z,85.31
2022-12-04T09:33:34.694Z,85.46
2022-12-04T09:37:27.401Z,84.63
2022-12-04T09:41:49.402Z,84.32
2022-12-04T09:45:51.376Z,84.22
2022-12-04T09:50:02.138Z,84.42
2022-12-04T09:54:04.112Z,83.11
2022-12-04T09:58:02.076Z,82.69
2022-12-04T10:02:16.565Z,82.47
2022-12-04T10:06:18.420Z,81.83
2022-12-04T10:10:33.825Z,81.84
2022-12-04T10:14:41.870Z,80.66
2022-12-04T10:18:43.917Z,80.46
2022-12-04T10:22:42.464Z,80.21
2022-12-04T10:26:41.580Z,80.71
2022-12-04T10:30:37.622Z,80.86
2022-12-04T10:34:45.503Z,80.78
2022-12-04T10:38:41.690Z,80.88
2022-12-04T10:43:23.842Z,80.73
2022-12-04T10:47:16.809Z,78.19
2022-12-04T10:51:15.980Z,77.23
2022-12-04T10:55:08.787Z,77.72
2022-12-04T10:59:05.682Z,78.46
2022-12-04T11:03:01.880Z,77.88
2022-12-04T11:07:11.005Z,77.43
2022-12-04T11:11:08.110Z,77.83
2022-12-04T11:15:21.328Z,77.58
2022-12-04T11:19:26.020Z,77.98
2022-12-04T11:23:18.887Z,78.21
2022-12-04T11:27:26.202Z,77.89
2022-12-04T11:31:22.020Z,78.54
2022-12-04T11:35:24.066Z,78.77
2022-12-04T11:39:23.323Z,78.12
2022-12-04T11:43:18.415Z,78.96
2022-12-04T11:47:19.028Z,78.41
2022-12-04T11:51:36.628Z,79.09
2022-12-04T11:55:52.034Z,78.40
2022-12-04T12:00:06.241Z,77.84
2022-12-04T12:04:25.882Z,77.72
2022-12-04T12:08:33.597Z,78.15
2022-12-04T12:12:41.365Z,77.79
2022-12-04T12:21:15.454Z,77.95
2022-12-04T12:25:39.150Z,77.93
2022-12-04T12:29:57.180Z,77.76
2022-12-04T12:33:56.429Z,77.39
2022-12-04T12:37:54.753Z,77.95
2022-12-04T12:42:02.417Z,77.16
2022-12-04T12:46:04.271Z,76.24
2022-12-04T12:50:17.591Z,77.28
2022-12-04T12:54:25.347Z,76.95
2022-12-04T12:58:42.682Z,75.08
2022-12-04T13:02:41.918Z,71.16
2022-12-04T13:06:39.076Z,72.84
2022-12-04T13:10:46.675Z,73.30
2022-12-04T13:14:40.893Z,74.04
2022-12-04T13:18:48.000Z,74.66
2022-12-04T13:23:04.586Z,75.56
2022-12-04T13:27:34.339Z,74.92
2022-12-04T13:31:37.097Z,75.00
2022-12-04T13:35:47.560Z,75.39
2022-12-04T13:40:27.105Z,75.00
2022-12-04T13:44:25.700Z,74.58
2022-12-04T13:48:37.026Z,73.74
2022-12-04T13:52:41.889Z,73.69
2022-12-04T13:56:34.570Z,73.67
2022-12-04T14:00:36.295Z,72.88
2022-12-04T14:04:33.007Z,73.08
2022-12-04T14:08:28.973Z,73.13
2022-12-04T14:12:44.236Z,72.90
2022-12-04T14:16:41.026Z,72.58
2022-12-04T14:20:35.913Z,73.22
2022-12-04T14:24:35.950Z,72.57
2022-12-04T14:28:33.980Z,73.38
2022-12-04T14:32:35.912Z,73.30
2022-12-04T14:36:34.316Z,73.11
2022-12-04T14:40:37.645Z,73.08
2022-12-04T14:44:31.266Z,72.81
2022-12-04T14:48:32.165Z,73.43
2022-12-04T14:52:33.656Z,73.64
2022-12-04T14:56:45.091Z,73.57
2022-12-04T15:00:38.836Z,74.16
2022-12-04T15:04:35.763Z,74.27
2022-12-04T15:08:28.729Z,73.71
2022-12-04T15:12:34.834Z,74.58
2022-12-04T15:16:27.946Z,74.59
2022-12-04T15:20:22.272Z,75.09
2022-12-04T15:24:24.063Z,74.11
2022-12-04T15:28:36.082Z,73.80
2022-12-04T15:32:31.201Z,74.61
2022-12-04T15:36:46.419Z,74.37
2022-12-04T15:40:56.308Z,75.07
2022-12-04T15:45:01.564Z,74.47
2022-12-04T15:49:16.162Z,73.91
2022-12-04T15:53:18.188Z,74.08
2022-12-04T15:57:35.863Z,73.61
2022-12-04T16:01:39.714Z,74.31
2022-12-04T16:05:37.538Z,74.06
2022-12-04T16:09:31.023Z,74.04
2022-12-04T16:13:36.720Z,73.76
2022-12-04T16:17:34.607Z,74.41
2022-12-04T16:21:32.323Z,74.60
2022-12-04T16:25:27.212Z,74.46
2022-12-04T16:29:20.498Z,74.27
2022-12-04T16:33:15.520Z,74.62
2022-12-04T16:37:22.265Z,74.32
2022-12-04T16:41:19.549Z,75.43
2022-12-04T16:45:23.215Z,75.67
2022-12-04T16:49:16.228Z,75.33
2022-12-04T16:53:15.565Z,75.06
2022-12-04T16:57:09.072Z,74.36
2022-12-04T17:01:07.034Z,74.85
2022-12-04T17:05:00.116Z,75.42
2022-12-04T17:08:56.804Z,75.74
2022-12-04T17:12:51.965Z,76.09
2022-12-04T17:16:47.397Z,76.47
2022-12-04T17:20:44.951Z,77.75
2022-12-04T17:24:45.441Z,78.82
2022-12-04T17:28:42.000Z,79.92
2022-12-04T17:32:36.164Z,79.75
2022-12-04T17:36:29.015Z,80.07
2022-12-04T17:40:21.839Z,81.21
2022-12-04T17:44:14.939Z,80.59
2022-12-04T17:48:07.758Z,79.29
2022-12-04T17:52:01.050Z,79.95
2022-12-04T17:55:54.584Z,79.82
2022-12-04T17:59:50.778Z,80.61
2022-12-04T18:03:44.497Z,80.34
2022-12-04T18:07:37.369Z,78.78
2022-12-04T18:11:32.647Z,80.27
2022-12-04T18:15:26.530Z,79.24
2022-12-04T18:19:25.261Z,79.58
2022-12-04T18:23:18.290Z,79.63
2022-12-04T18:27:11.466Z,79.22
2022-12-04T18:31:06.913Z,79.59
2022-12-04T18:34:59.965Z,80.60
2022-12-04T18:39:01.210Z,80.52
2022-12-04T18:42:53.763Z,80.95
2022-12-04T18:46:48.288Z,81.04
2022-12-04T18:50:44.148Z,81.39
2022-12-04T18:54:37.231Z,82.31
2022-12-04T18:58:31.245Z,81.99
2022-12-04T19:02:25.934Z,82.12
2022-12-04T19:06:19.297Z,82.09
2022-12-04T19:10:12.643Z,82.45
2022-12-04T19:14:14.785Z,83.12
2022-12-04T19:18:12.285Z,83.85
2022-12-04T19:22:05.905Z,83.72
2022-12-04T19:26:00.813Z,84.50
2022-12-04T19:29:55.790Z,84.56
2022-12-04T19:33:49.705Z,83.67
2022-12-04T19:37:46.878Z,84.61
2022-12-04T19:41:43.269Z,85.31
2022-12-04T19:45:37.241Z,85.10
2022-12-04T19:49:39.613Z,85.71
2022-12-04T19:53:40.503Z,85.08
2022-12-04T19:57:35.034Z,84.80
2022-12-04T20:01:32.412Z,84.50
2022-12-04T20:05:26.066Z,83.19
2022-12-04T20:09:22.053Z,83.55
2022-12-04T20:13:15.279Z,83.38
2022-12-04T20:17:08.641Z,83.88
2022-12-04T20:21:02.776Z,82.60
2022-12-04T20:24:56.631Z,81.72
2022-12-04T20:28:49.656Z,82.45
2022-12-04T20:32:45.623Z,82.97
2022-12-04T20:36:41.848Z,82.68
2022-12-04T20:40:35.839Z,82.87
2022-12-04T20:44:28.946Z,83.20
2022-12-04T20:48:22.060Z,82.55
2022-12-04T20:52:15.520Z,83.25
2022-12-04T20:56:08.586Z,82.86
2022-12-04T21:00:02.180Z,80.11
2022-12-04T21:03:59.096Z,79.78
2022-12-04T21:07:52.500Z,79.92
2022-12-04T21:11:52.061Z,80.42
2022-12-04T21:16:03.846Z,79.23
2022-12-04T21:19:57.388Z,80.45
2022-12-04T21:23:52.064Z,80.61
2022-12-04T21:27:44.523Z,81.42
2022-12-04T21:31:38.435Z,82.50
2022-12-04T21:35:30.997Z,81.99
2022-12-04T21:39:24.138Z,81.19
2022-12-04T21:43:16.596Z,81.09
2022-12-04T21:47:09.575Z,80.45
2022-12-04T21:51:16.841Z,80.19
2022-12-04T21:55:20.239Z,79.52
2022-12-04T21:59:13.267Z,79.96
2022-12-04T22:03:06.338Z,80.62
2022-12-04T22:06:58.961Z,80.48
2022-12-04T22:10:51.576Z,81.12
2022-12-04T22:14:44.079Z,80.88
2022-12-04T22:18:36.901Z,81.19
2022-12-04T22:22:29.594Z,81.26
2022-12-04T22:26:22.133Z,80.69
2022-12-04T22:30:14.997Z,80.99
2022-12-04T22:34:07.607Z,81.62
2022-12-04T22:38:00.350Z,81.20
2022-12-04T22:41:52.971Z,81.30
2022-12-04T22:45:45.458Z,81.78
2022-12-04T22:49:38.361Z,81.70
2022-12-04T22:53:36.810Z,81.44
2022-12-04T22:57:29.288Z,81.50
2022-12-04T23:01:27.804Z,81.93
2022-12-04T23:05:20.463Z,81.95
2022-12-04T23:09:15.995Z,81.71
2022-12-04T23:13:08.636Z,81.64
2022-12-04T23:17:01.227Z,82.87
2022-12-04T23:20:54.450Z,82.29
2022-12-04T23:24:47.262Z,82.69
2022-12-04T23:28:40.270Z,82.33
2022-12-04T23:32:32.728Z,82.83
2022-12-04T23:36:25.772Z,82.89
2022-12-04T23:40:18.648Z,81.96
2022-12-04T23:44:11.085Z,82.41
2022-12-04T23:48:03.845Z,82.59
2022-12-04T23:51:56.497Z,81.97
2022-12-04T23:56:06.447Z,82.36
2022-12-04T23:59:59.221Z,82.51
